Pittsburgh, Pennsylvania
Current Conditions -  °F | °C
As of 12:53 AM on Thursday 18 Dec 2014 (Local Time) from KAGC Reporting Station
Overcast Overcast  
Wind Chill: -7°   Ceiling: 2700
Heat Index: -2°   Visibility: 10mi
Dew Point: -9°   Wind: 8mph
Humidity: 61%   Direction: 310°NW
Pressure: 30.13"   Gusts: NA
Location:  40.44°N, 80°W
Report Text: KAGC 180553Z 31007KT 270V340 10SM OVC027 M02/M09 A3013 RMK AO2 SLP220 60000 T10221089 11006 21022 53008
Loading
Personal Weather Stations






























Interactive Weather Map New forecast layout! Learn more

10-Day Weather Forecast

Advertisements
Track Severe Weather on mobile